Time;durP1;ratioP1;P1;durP2;ratioP2;P2;SDS_P1;SDS_P2;PMS_P1;PMS_P2;Temp;Humidity;BMP_temperature;BMP_pressure;BME280_temperature;BME280_humidity;BME280_pressure;Samples;Min_cycle;Max_cycle;Signal;HPM_P1;HPM_P2
2021/03/21 00:00:40;;;;;;;2.75;1.80;;;2.10;99.90;;;;;;4995093;28;20058;-86
2021/03/21 00:03:07;;;;;;;2.85;1.85;;;2.20;99.90;;;;;;4974266;28;20089;-86
2021/03/21 00:05:33;;;;;;;3.60;2.15;;;2.20;99.90;;;;;;4977586;28;20120;-86
2021/03/21 00:08:04;;;;;;;3.55;1.70;;;2.20;99.90;;;;;;4977891;28;20495;-86
2021/03/21 00:10:33;;;;;;;2.85;2.17;;;2.20;99.90;;;;;;4995027;28;20133;-86
2021/03/21 00:13:00;;;;;;;4.70;1.90;;;2.30;99.90;;;;;;4994818;28;20062;-86
2021/03/21 00:15:27;;;;;;;4.70;2.13;;;2.30;99.90;;;;;;4977659;28;20056;-86
2021/03/21 00:17:54;;;;;;;4.38;2.17;;;2.20;99.90;;;;;;4994512;28;20054;-86
2021/03/21 00:20:25;;;;;;;9.82;3.30;;;2.30;99.90;;;;;;4977597;28;20154;-86
2021/03/21 00:22:52;;;;;;;3.97;2.63;;;2.30;99.90;;;;;;4977735;28;20145;-86
2021/03/21 00:25:19;;;;;;;6.55;2.20;;;2.30;99.90;;;;;;4994704;28;20129;-86
2021/03/21 00:27:46;;;;;;;3.15;2.25;;;2.30;99.90;;;;;;4977158;28;20054;-86
2021/03/21 00:30:16;;;;;;;3.00;2.15;;;2.30;99.90;;;;;;4994578;28;20050;-86
2021/03/21 00:32:43;;;;;;;3.70;2.22;;;2.30;99.90;;;;;;4977434;28;20101;-86
2021/03/21 00:35:11;;;;;;;3.03;2.35;;;2.30;99.90;;;;;;4977621;28;20073;-86
2021/03/21 00:37:39;;;;;;;4.88;2.40;;;2.20;99.90;;;;;;4993409;28;20137;-86
2021/03/21 00:40:09;;;;;;;3.03;2.70;;;2.30;99.90;;;;;;4977432;28;20129;-86
2021/03/21 00:42:35;;;;;;;5.15;2.38;;;2.30;99.90;;;;;;4994627;28;20153;-86
2021/03/21 00:45:04;;;;;;;3.17;2.78;;;2.20;99.90;;;;;;4977496;28;20101;-86
2021/03/21 00:47:30;;;;;;;3.28;2.25;;;2.20;99.90;;;;;;4977271;28;20451;-86
2021/03/21 00:49:57;;;;;;;5.57;2.90;;;2.20;99.90;;;;;;4993239;28;20050;-86
2021/03/21 00:52:23;;;;;;;5.35;2.80;;;2.30;99.90;;;;;;4994234;28;20100;-86
2021/03/21 00:54:49;;;;;;;4.57;2.90;;;2.30;99.90;;;;;;4977193;28;20050;-86
2021/03/21 00:57:27;;;;;;;4.35;2.70;;;2.20;99.90;;;;;;4993058;28;20053;-86
2021/03/21 00:59:54;;;;;;;2.63;2.10;;;2.30;99.90;;;;;;4977183;28;20141;-86
2021/03/21 01:02:20;;;;;;;5.18;2.90;;;2.30;99.90;;;;;;4978056;28;20086;-86
2021/03/21 01:04:47;;;;;;;6.03;3.00;;;2.30;99.90;;;;;;4994497;28;20050;-87
2021/03/21 01:07:14;;;;;;;3.13;2.83;;;2.20;99.90;;;;;;4994253;28;20125;-86
2021/03/21 01:09:40;;;;;;;6.90;3.38;;;2.20;99.90;;;;;;4994015;28;20461;-87
2021/03/21 01:12:06;;;;;;;4.05;2.63;;;2.20;99.90;;;;;;4977126;28;20148;-86
2021/03/21 01:14:33;;;;;;;4.32;2.85;;;2.20;99.90;;;;;;4993747;28;20149;-85
2021/03/21 01:16:59;;;;;;;4.63;3.17;;;2.10;99.90;;;;;;4993101;28;20054;-87
2021/03/21 01:19:26;;;;;;;4.68;2.55;;;2.20;99.90;;;;;;4977166;28;20494;-86
2021/03/21 01:21:52;;;;;;;3.78;2.65;;;2.20;99.90;;;;;;4976893;28;20133;-87
2021/03/21 01:24:21;;;;;;;4.53;2.72;;;2.10;99.90;;;;;;4977135;28;20133;-84
2021/03/21 01:26:48;;;;;;;5.32;3.03;;;2.10;99.90;;;;;;4993819;28;20077;-86
2021/03/21 01:29:15;;;;;;;8.23;3.55;;;2.10;99.90;;;;;;4976737;28;20407;-87
2021/03/21 01:31:41;;;;;;;7.65;3.08;;;2.10;99.90;;;;;;4976899;28;20055;-87
2021/03/21 01:34:10;;;;;;;3.70;2.65;;;2.10;99.90;;;;;;4993876;28;20046;-87
2021/03/21 01:36:38;;;;;;;4.30;2.70;;;2.10;99.90;;;;;;4976550;28;20062;-86
2021/03/21 01:39:17;;;;;;;5.78;3.15;;;2.10;99.90;;;;;;4979158;28;20050;-86
2021/03/21 01:41:44;;;;;;;3.67;2.92;;;2.10;99.90;;;;;;4980315;28;20136;-87
2021/03/21 01:44:14;;;;;;;3.45;2.92;;;2.10;99.90;;;;;;4980586;28;20128;-86
2021/03/21 01:46:56;;;;;;;4.05;3.08;;;2.00;99.90;;;;;;4998034;28;20158;-87
2021/03/21 01:49:29;;;;;;;3.40;3.05;;;2.00;99.90;;;;;;4980385;28;20145;-86
2021/03/21 01:51:58;;;;;;;7.22;3.05;;;2.10;99.90;;;;;;4997393;28;20222;-84
2021/03/21 01:54:25;;;;;;;5.00;3.25;;;2.10;99.90;;;;;;4980241;28;20462;-86
2021/03/21 01:56:55;;;;;;;7.85;3.50;;;2.10;99.90;;;;;;4997734;28;20132;-87
2021/03/21 01:59:28;;;;;;;6.43;3.90;;;2.10;99.90;;;;;;4980270;28;20530;-86
2021/03/21 02:01:57;;;;;;;4.60;3.35;;;2.20;99.90;;;;;;4997284;28;20058;-87
2021/03/21 02:04:24;;;;;;;5.90;3.05;;;2.20;99.90;;;;;;4980020;28;20077;-86
2021/03/21 02:07:18;;;;;;;4.43;3.45;;;2.20;99.90;;;;;;4997295;28;20495;-86
2021/03/21 02:10:10;;;;;;;8.35;4.18;;;2.20;99.90;;;;;;4979970;28;20133;-86
2021/03/21 02:12:48;;;;;;;5.40;3.72;;;2.20;99.90;;;;;;4979978;28;20054;-86
2021/03/21 02:15:23;;;;;;;4.30;3.50;;;2.20;99.90;;;;;;4997320;28;20042;-87
2021/03/21 02:18:15;;;;;;;3.92;3.22;;;2.20;99.90;;;;;;4996860;28;20505;-86
2021/03/21 02:21:25;;;;;;;4.47;3.05;;;2.20;99.90;;;;;;4997163;28;20064;-86
2021/03/21 02:24:09;;;;;;;6.10;3.40;;;2.20;99.90;;;;;;4995100;28;20078;-87
2021/03/21 02:26:58;;;;;;;4.15;3.33;;;2.30;99.90;;;;;;4979879;28;20442;-86
2021/03/21 02:29:33;;;;;;;6.72;3.60;;;2.30;99.90;;;;;;4996743;28;20109;-86
2021/03/21 02:32:12;;;;;;;5.07;3.28;;;2.30;99.90;;;;;;4996785;28;20046;-86
2021/03/21 02:34:46;;;;;;;3.60;3.30;;;2.30;99.90;;;;;;4979831;28;20050;-87
2021/03/21 02:37:27;;;;;;;5.28;3.60;;;2.30;99.90;;;;;;4976167;28;20042;-87
2021/03/21 02:39:57;;;;;;;4.38;3.60;;;2.40;99.90;;;;;;4976286;28;20062;-85
2021/03/21 02:42:43;;;;;;;3.85;3.42;;;2.40;99.90;;;;;;4975947;28;20074;-86
2021/03/21 02:45:13;;;;;;;3.85;3.42;;;2.40;99.90;;;;;;4979639;28;20058;-86
2021/03/21 02:47:41;;;;;;;4.88;3.63;;;2.50;99.90;;;;;;4979458;28;20535;-87
2021/03/21 02:50:23;;;;;;;6.63;4.13;;;2.40;99.90;;;;;;4979137;28;20058;-87
2021/03/21 02:53:11;;;;;;;4.63;3.88;;;2.40;99.90;;;;;;4979478;28;20129;-87
2021/03/21 02:55:41;;;;;;;5.30;3.70;;;2.40;99.90;;;;;;4979336;28;20129;-87
2021/03/21 02:58:12;;;;;;;7.53;4.35;;;2.40;99.90;;;;;;4996706;28;20054;-87
2021/03/21 03:00:45;;;;;;;4.47;3.95;;;2.40;99.90;;;;;;4996317;28;20137;-86
2021/03/21 03:03:16;;;;;;;4.80;3.95;;;2.40;99.90;;;;;;4995042;28;20474;-86
2021/03/21 03:05:47;;;;;;;6.78;4.07;;;2.40;99.90;;;;;;4996052;28;20051;-86
2021/03/21 03:08:19;;;;;;;4.80;4.15;;;2.40;99.90;;;;;;4996301;28;20097;-86
2021/03/21 03:10:51;;;;;;;5.28;4.07;;;2.50;99.90;;;;;;4995270;28;20483;-87
2021/03/21 03:13:24;;;;;;;7.10;4.85;;;2.50;99.90;;;;;;4996511;28;20046;-87
2021/03/21 03:15:58;;;;;;;4.90;4.22;;;2.50;99.90;;;;;;4978919;28;20057;-86
2021/03/21 03:18:34;;;;;;;5.70;3.80;;;2.50;99.90;;;;;;4978937;28;20073;-86
2021/03/21 03:21:14;;;;;;;6.55;4.82;;;2.50;99.90;;;;;;4978857;28;20101;-86
2021/03/21 03:23:51;;;;;;;8.07;4.88;;;2.50;99.90;;;;;;4995779;28;20145;-87
2021/03/21 03:26:40;;;;;;;8.75;4.72;;;2.50;99.90;;;;;;4995536;28;20134;-86
2021/03/21 03:29:36;;;;;;;5.22;4.63;;;2.50;99.90;;;;;;4980634;28;20060;-86
2021/03/21 03:32:06;;;;;;;5.03;4.22;;;2.50;99.90;;;;;;4978601;28;20137;-87
2021/03/21 03:34:34;;;;;;;8.63;5.10;;;2.50;99.90;;;;;;4978767;28;20047;-86
2021/03/21 03:37:01;;;;;;;6.88;5.10;;;2.40;99.90;;;;;;4995338;28;20072;-86
2021/03/21 03:39:27;;;;;;;6.70;5.03;;;2.50;99.90;;;;;;4995199;28;20129;-87
2021/03/21 03:42:01;;;;;;;5.53;4.35;;;2.40;99.90;;;;;;4978148;28;20082;-86
2021/03/21 03:44:53;;;;;;;;;;;2.40;99.90;;;;;;4978444;28;20451;-86
2021/03/21 03:47:46;;;;;;;5.63;4.68;;;2.40;99.90;;;;;;4994196;28;19922;-86
2021/03/21 03:50:25;;;;;;;5.72;4.75;;;2.40;99.90;;;;;;4995461;28;20054;-86
2021/03/21 03:53:07;;;;;;;6.00;5.18;;;2.40;99.90;;;;;;4978176;28;20129;-84
2021/03/21 03:55:58;;;;;;;5.53;5.00;;;2.40;99.90;;;;;;4978060;28;20519;-87
2021/03/21 03:58:37;;;;;;;6.80;4.78;;;2.40;99.90;;;;;;4977794;28;20054;-85
2021/03/21 04:01:11;;;;;;;10.50;5.05;;;2.40;99.90;;;;;;4977094;28;20116;-87
2021/03/21 04:03:49;;;;;;;7.18;5.28;;;2.40;99.90;;;;;;4977882;28;20483;-84
2021/03/21 04:06:41;;;;;;;7.93;5.10;;;2.40;99.90;;;;;;4994828;28;20073;-86
2021/03/21 04:09:19;;;;;;;6.25;5.20;;;2.40;99.90;;;;;;4970060;28;20082;-86
2021/03/21 04:12:01;;;;;;;7.60;5.38;;;2.40;99.90;;;;;;4977394;28;20097;-86
2021/03/21 04:14:52;;;;;;;7.40;5.60;;;2.40;99.90;;;;;;4977660;28;20093;-87
2021/03/21 04:17:22;;;;;;;7.93;6.10;;;2.40;99.90;;;;;;4981850;28;20153;-86
2021/03/21 04:19:59;;;;;;;7.32;5.40;;;2.40;99.90;;;;;;4994516;28;20053;-87
2021/03/21 04:22:31;;;;;;;8.35;5.75;;;2.40;99.90;;;;;;4977611;28;20133;-86
2021/03/21 04:25:05;;;;;;;7.27;5.47;;;2.50;99.90;;;;;;4977439;28;20137;-87
2021/03/21 04:28:05;;;;;;;7.38;5.68;;;2.50;99.90;;;;;;4977310;28;20298;-87
2021/03/21 04:30:33;;;;;;;8.77;5.80;;;2.50;99.90;;;;;;4965811;28;20042;-86
2021/03/21 04:33:01;;;;;;;9.35;6.20;;;2.50;99.90;;;;;;4977450;28;20054;-87
2021/03/21 04:35:34;;;;;;;10.50;6.03;;;2.50;99.90;;;;;;4977202;28;20062;-86
2021/03/21 04:38:10;;;;;;;9.35;5.97;;;2.60;99.90;;;;;;4994413;28;20057;-87
2021/03/21 04:40:37;;;;;;;11.13;5.85;;;2.50;99.90;;;;;;4977400;28;20517;-87
2021/03/21 04:43:29;;;;;;;7.43;6.18;;;2.60;99.90;;;;;;4993350;28;20115;-86
2021/03/21 04:46:01;;;;;;;7.25;5.70;;;2.50;99.90;;;;;;4977275;28;20049;-87
2021/03/21 04:48:28;;;;;;;7.03;6.00;;;2.50;99.90;;;;;;4993861;28;20483;-87
2021/03/21 04:51:10;;;;;;;8.52;5.75;;;2.50;99.90;;;;;;4994241;28;20050;-86
2021/03/21 04:53:43;;;;;;;7.78;5.68;;;2.50;99.90;;;;;;4993843;28;20057;-86
2021/03/21 04:56:36;;;;;;;10.85;5.97;;;2.50;99.90;;;;;;4976892;28;20106;-86
2021/03/21 04:59:13;;;;;;;10.93;6.27;;;2.50;99.90;;;;;;4993114;28;20104;-86
2021/03/21 05:02:01;;;;;;;7.82;5.75;;;2.50;99.90;;;;;;4976700;28;20078;-86
2021/03/21 05:04:33;;;;;;;9.20;7.60;;;2.50;99.90;;;;;;4976894;28;20054;-87
2021/03/21 05:07:06;;;;;;;11.32;6.63;;;2.50;99.90;;;;;;4976546;28;20078;-86
2021/03/21 05:09:38;;;;;;;9.90;6.22;;;2.60;99.90;;;;;;4993903;28;20133;-86
2021/03/21 05:12:18;;;;;;;8.10;6.13;;;2.60;99.90;;;;;;4993795;28;20446;-86
2021/03/21 05:14:59;;;;;;;7.97;6.15;;;2.60;99.90;;;;;;4994285;28;20081;-86
2021/03/21 05:17:40;;;;;;;7.05;5.85;;;2.70;99.90;;;;;;4992558;28;20055;-87
2021/03/21 05:20:24;;;;;;;8.30;5.70;;;2.70;99.90;;;;;;4993491;28;20133;-86
2021/03/21 05:23:28;;;;;;;7.93;6.40;;;2.70;99.90;;;;;;4993753;28;20136;-86
2021/03/21 05:26:08;;;;;;;12.27;6.07;;;2.70;99.90;;;;;;4993761;28;20072;-87
2021/03/21 05:29:12;;;;;;;9.40;6.28;;;2.70;99.90;;;;;;4976871;28;20518;-86
2021/03/21 05:31:38;;;;;;;7.47;6.10;;;2.70;99.90;;;;;;4993886;28;20042;-87
2021/03/21 05:34:05;;;;;;;7.90;6.43;;;2.70;99.90;;;;;;4976797;28;20058;-86
2021/03/21 05:36:53;;;;;;;9.60;7.00;;;2.70;99.90;;;;;;4976208;28;20065;-86
2021/03/21 05:39:19;;;;;;;8.02;5.72;;;2.80;99.90;;;;;;4976604;28;20419;-86
2021/03/21 05:42:10;;;;;;;7.93;6.50;;;2.70;99.90;;;;;;4976393;28;20074;-86
2021/03/21 05:45:04;;;;;;;6.53;5.35;;;2.80;99.90;;;;;;4994016;28;20077;-86
2021/03/21 05:47:49;;;;;;;7.57;6.07;;;2.90;99.90;;;;;;4971586;28;20700;-86
2021/03/21 05:50:37;;;;;;;6.75;5.65;;;2.80;99.90;;;;;;4993922;28;20132;-84
2021/03/21 05:53:32;;;;;;;9.75;6.22;;;2.90;99.90;;;;;;4976286;28;20057;-86
2021/03/21 05:56:01;;;;;;;7.28;5.78;;;3.00;99.90;;;;;;4950308;28;20097;-87
2021/03/21 05:59:01;;;;;;;6.97;6.22;;;3.10;99.90;;;;;;4976288;28;20055;-87
2021/03/21 06:01:58;;;;;;;11.95;6.07;;;3.20;99.90;;;;;;4993431;28;20058;-86
2021/03/21 06:05:01;;;;;;;8.02;6.00;;;3.20;99.90;;;;;;4993648;28;20050;-86
2021/03/21 06:07:33;;;;;;;10.93;6.07;;;3.20;99.90;;;;;;4975977;28;20050;-86
2021/03/21 06:10:21;;;;;;;8.48;6.55;;;3.20;99.90;;;;;;4993499;28;20050;-87
2021/03/21 06:13:31;;;;;;;8.23;5.90;;;3.20;99.90;;;;;;4976260;28;20077;-87
2021/03/21 06:16:06;;;;;;;8.05;6.28;;;3.20;99.90;;;;;;4940210;28;20046;-86
2021/03/21 06:19:01;;;;;;;7.68;5.75;;;3.20;99.90;;;;;;4993311;28;20068;-87
2021/03/21 06:22:10;;;;;;;8.45;6.18;;;3.20;99.90;;;;;;4970605;28;20145;-87
2021/03/21 06:24:46;;;;;;;9.02;6.65;;;3.20;99.90;;;;;;4977599;28;20081;-86
2021/03/21 06:27:42;;;;;;;7.43;6.43;;;3.20;99.90;;;;;;4979423;28;20161;-84
2021/03/21 06:30:36;;;;;;;7.05;6.10;;;3.20;99.90;;;;;;4979773;28;20096;-86
2021/03/21 06:33:07;;;;;;;10.40;6.95;;;3.20;99.90;;;;;;4996332;28;20468;-86
2021/03/21 06:35:47;;;;;;;10.13;7.45;;;3.30;99.90;;;;;;4995058;28;20058;-87
2021/03/21 06:38:28;;;;;;;10.70;7.78;;;3.20;99.90;;;;;;4979160;28;20058;-86
2021/03/21 06:41:24;;;;;;;11.18;7.97;;;3.20;99.90;;;;;;4996610;28;20054;-86
2021/03/21 06:44:06;;;;;;;12.73;8.60;;;3.10;99.90;;;;;;4978041;28;20077;-86
2021/03/21 06:47:05;;;;;;;11.23;8.77;;;3.00;99.90;;;;;;4996348;28;20149;-86
2021/03/21 06:49:50;;;;;;;12.30;9.30;;;2.90;99.90;;;;;;4996438;28;20455;-87
2021/03/21 06:52:43;;;;;;;13.57;9.27;;;2.90;99.90;;;;;;4979042;28;20129;-87
2021/03/21 06:55:17;;;;;;;14.05;9.18;;;2.90;99.90;;;;;;4996385;28;20050;-87
2021/03/21 06:58:31;;;;;;;15.15;10.25;;;2.90;99.90;;;;;;4979066;28;20491;-86
2021/03/21 07:01:12;;;;;;;12.13;9.52;;;2.80;99.90;;;;;;4951019;28;20542;-87
2021/03/21 07:04:11;;;;;;;12.82;10.10;;;2.90;99.90;;;;;;4978986;28;20411;-87
2021/03/21 07:07:08;;;;;;;10.85;8.77;;;2.90;99.90;;;;;;4979145;28;20101;-86
2021/03/21 07:10:09;;;;;;;13.70;10.13;;;2.90;99.90;;;;;;4996342;28;20554;-87
2021/03/21 07:12:50;;;;;;;13.25;9.73;;;3.00;99.90;;;;;;4996103;28;20050;-87
2021/03/21 07:15:28;;;;;;;13.90;9.65;;;3.10;99.90;;;;;;4978439;28;20081;-85
2021/03/21 07:18:31;;;;;;;13.07;9.82;;;3.20;99.90;;;;;;4978659;28;20133;-86
2021/03/21 07:21:16;;;;;;;9.80;8.50;;;3.30;99.90;;;;;;4978396;28;20137;-87
2021/03/21 07:24:10;;;;;;;12.77;9.45;;;3.40;99.90;;;;;;4978757;28;20053;-87
2021/03/21 07:27:05;;;;;;;11.00;8.68;;;3.50;99.90;;;;;;4996108;28;20474;-86
2021/03/21 07:29:42;;;;;;;9.80;8.38;;;3.70;99.90;;;;;;4978480;28;20054;-86
2021/03/21 07:32:42;;;;;;;13.07;8.85;;;3.70;99.90;;;;;;4981137;28;20082;-86
2021/03/21 07:35:22;;;;;;;;;;;3.80;99.90;;;;;;4979160;28;20057;-87
2021/03/21 07:38:03;;;;;;;14.27;8.70;;;3.90;99.90;;;;;;4978438;28;19926;-84
2021/03/21 07:41:00;;;;;;;16.02;10.57;;;3.90;99.90;;;;;;4995717;28;20050;-84
2021/03/21 07:43:49;;;;;;;13.73;8.63;;;4.10;99.90;;;;;;4978536;28;20085;-87
2021/03/21 07:46:45;;;;;;;10.40;7.70;;;4.30;99.90;;;;;;4978141;28;20047;-87
2021/03/21 07:49:44;;;;;;;9.63;7.38;;;4.40;99.90;;;;;;4971327;28;20089;-87
2021/03/21 07:52:22;;;;;;;11.27;8.05;;;4.50;99.90;;;;;;4970698;28;20089;-87
2021/03/21 07:55:11;;;;;;;9.13;7.18;;;4.50;99.90;;;;;;4978349;28;20056;-87
2021/03/21 07:57:40;;;;;;;8.40;7.25;;;4.60;99.90;;;;;;4978359;28;20046;-87
2021/03/21 08:00:09;;;;;;;9.20;7.00;;;4.70;99.90;;;;;;4995389;28;20137;-87
2021/03/21 08:03:01;;;;;;;7.80;6.63;;;4.90;99.90;;;;;;4995186;28;20058;-87
2021/03/21 08:05:28;;;;;;;8.10;6.85;;;5.00;99.90;;;;;;4977978;28;20050;-86
2021/03/21 08:07:56;;;;;;;10.43;7.72;;;5.00;99.90;;;;;;4978004;28;20478;-86
2021/03/21 08:10:35;;;;;;;8.02;7.10;;;5.00;99.90;;;;;;4977898;28;20050;-86
2021/03/21 08:13:14;;;;;;;9.65;7.82;;;5.00;99.90;;;;;;4995013;28;20069;-86
2021/03/21 08:15:41;;;;;;;8.60;6.90;;;5.00;99.90;;;;;;4977914;28;20046;-87
2021/03/21 08:18:14;;;;;;;9.02;7.47;;;4.90;99.90;;;;;;4978157;28;20050;-86
2021/03/21 08:20:53;;;;;;;9.27;7.72;;;4.90;99.90;;;;;;4978356;28;20133;-87
2021/03/21 08:23:25;;;;;;;12.00;7.60;;;4.90;99.90;;;;;;4971340;28;20093;-87
2021/03/21 08:25:53;;;;;;;9.95;6.72;;;4.90;99.90;;;;;;4977802;28;20061;-88
2021/03/21 08:28:23;;;;;;;13.40;9.18;;;4.80;99.90;;;;;;4977474;28;20137;-86
2021/03/21 08:30:56;;;;;;;9.38;7.05;;;4.70;99.90;;;;;;4995019;28;20510;-87
2021/03/21 08:33:35;;;;;;;10.80;7.53;;;4.70;99.90;;;;;;4977671;28;20046;-87
2021/03/21 08:36:19;;;;;;;9.07;6.10;;;4.60;99.90;;;;;;4994349;28;20416;-86
2021/03/21 08:39:12;;;;;;;8.25;6.32;;;4.60;99.90;;;;;;4977452;28;20566;-85
2021/03/21 08:41:51;;;;;;;8.53;6.97;;;4.50;99.90;;;;;;4977396;28;20133;-86
2021/03/21 08:44:41;;;;;;;7.20;5.82;;;4.50;99.90;;;;;;4977006;28;20315;-86
2021/03/21 08:47:20;;;;;;;7.88;6.20;;;4.40;99.90;;;;;;4976698;28;20097;-87
2021/03/21 08:49:51;;;;;;;7.55;6.18;;;4.50;99.90;;;;;;4977025;28;20055;-86
2021/03/21 08:52:41;;;;;;;8.27;7.10;;;4.50;99.90;;;;;;4994075;28;20053;-84
2021/03/21 08:55:25;;;;;;;9.93;6.57;;;4.50;99.90;;;;;;4994427;28;20058;-86
2021/03/21 08:57:52;;;;;;;10.30;6.80;;;4.50;99.90;;;;;;4977157;28;20155;-87
2021/03/21 09:00:34;;;;;;;8.32;6.38;;;4.50;99.90;;;;;;4977092;28;20054;-87
2021/03/21 09:03:18;;;;;;;8.73;6.60;;;4.60;99.90;;;;;;4993919;28;20046;-86
2021/03/21 09:05:56;;;;;;;7.35;5.97;;;4.70;99.90;;;;;;4994314;28;20054;-86
2021/03/21 09:08:36;;;;;;;7.43;6.60;;;4.70;99.90;;;;;;4978958;28;20132;-87
2021/03/21 09:11:05;;;;;;;6.82;6.05;;;4.70;99.90;;;;;;4994284;28;20104;-87
2021/03/21 09:13:35;;;;;;;6.78;6.07;;;4.80;99.90;;;;;;4994044;28;20054;-87
2021/03/21 09:16:10;;;;;;;7.45;5.75;;;4.80;99.90;;;;;;4977099;28;20050;-87
2021/03/21 09:18:41;;;;;;;6.35;5.47;;;4.80;99.90;;;;;;4977827;28;20054;-87
2021/03/21 09:21:23;;;;;;;6.22;5.07;;;4.80;99.90;;;;;;4986230;28;20046;-87
2021/03/21 09:23:59;;;;;;;4.97;4.57;;;4.80;99.90;;;;;;4976666;28;20058;-86
2021/03/21 09:26:29;;;;;;;5.03;4.60;;;4.80;99.90;;;;;;4976898;28;20050;-86
2021/03/21 09:29:22;;;;;;;6.72;6.00;;;4.80;99.90;;;;;;4977155;28;20050;-86
2021/03/21 09:31:50;;;;;;;8.32;6.28;;;4.90;99.90;;;;;;4976589;28;20137;-87
2021/03/21 09:34:32;;;;;;;6.63;5.85;;;5.20;99.90;;;;;;4994223;28;20113;-87
2021/03/21 09:37:10;;;;;;;4.70;3.88;;;5.40;99.90;;;;;;4976687;28;20485;-87
2021/03/21 09:39:49;;;;;;;6.57;4.65;;;5.40;99.90;;;;;;4976869;28;20088;-87
2021/03/21 09:42:15;;;;;;;8.48;5.53;;;5.50;99.90;;;;;;4993654;28;20058;-87
2021/03/21 09:44:44;;;;;;;7.32;5.28;;;5.60;99.90;;;;;;4994061;28;20081;-87
2021/03/21 09:47:19;;;;;;;10.98;7.75;;;5.60;99.90;;;;;;4993519;28;20046;-87
2021/03/21 09:49:54;;;;;;;7.10;4.57;;;5.80;99.90;;;;;;4993900;28;20050;-87
2021/03/21 09:52:39;;;;;;;4.60;4.20;;;6.10;99.90;;;;;;4991742;28;20061;-88
2021/03/21 09:55:32;;;;;;;4.35;3.95;;;6.30;99.90;;;;;;4993650;28;20047;-87
2021/03/21 09:58:34;;;;;;;8.98;6.07;;;6.30;99.90;;;;;;4993719;28;20053;-87
2021/03/21 10:01:29;;;;;;;6.57;5.40;;;6.40;99.90;;;;;;4980390;28;20089;-87
2021/03/21 10:04:04;;;;;;;9.82;6.03;;;6.60;99.90;;;;;;4997589;28;20059;-87
2021/03/21 10:06:38;;;;;;;3.70;3.40;;;6.90;99.90;;;;;;4980459;28;20050;-87
2021/03/21 10:09:18;;;;;;;3.22;3.00;;;6.90;99.90;;;;;;4980425;28;20054;-88
2021/03/21 10:11:59;;;;;;;4.75;4.32;;;6.80;99.90;;;;;;4980253;28;20046;-88
2021/03/21 10:14:25;;;;;;;3.10;2.90;;;7.00;99.90;;;;;;4997516;28;20125;-87
2021/03/21 10:16:59;;;;;;;2.72;2.50;;;7.30;99.90;;;;;;4980244;28;20486;-87
2021/03/21 10:19:44;;;;;;;4.05;3.72;;;7.60;99.90;;;;;;4997570;28;20120;-88
2021/03/21 10:22:17;;;;;;;3.08;2.88;;;8.10;99.90;;;;;;4979591;28;20130;-88
2021/03/21 10:24:45;;;;;;;2.43;2.33;;;8.60;99.90;;;;;;4980168;28;20476;-88
2021/03/21 10:27:20;;;;;;;2.38;2.20;;;8.80;99.90;;;;;;4996810;28;20166;-88
2021/03/21 10:30:09;;;;;;;2.35;2.25;;;9.30;99.90;;;;;;4979628;28;20138;-88
2021/03/21 10:32:38;;;;;;;2.30;2.10;;;10.60;99.90;;;;;;4997001;28;20133;-87
2021/03/21 10:35:31;;;;;;;2.13;2.03;;;10.40;99.90;;;;;;4979464;28;20050;-87
2021/03/21 10:38:03;;;;;;;2.13;2.03;;;10.10;99.90;;;;;;4979196;28;20058;-88
2021/03/21 10:40:29;;;;;;;2.85;2.65;;;9.70;99.90;;;;;;4980247;28;20108;-87
2021/03/21 10:43:03;;;;;;;2.00;1.90;;;9.10;99.90;;;;;;4996538;28;20086;-86
2021/03/21 10:45:32;;;;;;;;;;;8.50;99.90;;;;;;4979723;28;20140;-87
2021/03/21 10:48:15;;;;;;;1.92;1.83;;;8.10;99.90;;;;;;4996724;28;19922;-87
2021/03/21 10:51:00;;;;;;;3.95;2.80;;;7.70;99.90;;;;;;4996535;28;20050;-87
2021/03/21 10:53:39;;;;;;;2.63;2.42;;;7.60;99.90;;;;;;4978955;28;20565;-87
2021/03/21 10:56:17;;;;;;;2.05;1.85;;;7.70;99.90;;;;;;4996602;28;20093;-87
2021/03/21 10:58:46;;;;;;;2.20;2.10;;;7.80;99.90;;;;;;4979416;28;20558;-87
2021/03/21 11:01:18;;;;;;;1.80;1.70;;;8.30;99.90;;;;;;4979323;28;20121;-87
2021/03/21 11:03:55;;;;;;;4.05;2.10;;;8.60;99.90;;;;;;4996128;28;20054;-87
2021/03/21 11:06:23;;;;;;;2.00;1.90;;;8.30;99.90;;;;;;4979224;28;20137;-87
2021/03/21 11:08:49;;;;;;;2.00;1.90;;;8.10;99.90;;;;;;4978945;28;20113;-87
2021/03/21 11:11:23;;;;;;;3.08;2.15;;;8.00;99.90;;;;;;4995679;28;20141;-86
2021/03/21 11:13:52;;;;;;;2.08;1.92;;;8.30;99.90;;;;;;4978794;28;20078;-87
2021/03/21 11:16:21;;;;;;;2.50;2.30;;;8.50;99.90;;;;;;4978597;28;20499;-87
2021/03/21 11:19:02;;;;;;;2.33;1.77;;;8.50;99.90;;;;;;4979228;28;20050;-87
2021/03/21 11:21:45;;;;;;;4.13;3.00;;;8.60;99.90;;;;;;4981316;28;20648;-87
2021/03/21 11:24:30;;;;;;;2.20;2.10;;;9.00;99.90;;;;;;4978945;28;20430;-87
2021/03/21 11:26:58;;;;;;;4.88;4.47;;;9.00;99.90;;;;;;4978584;28;20047;-87
2021/03/21 11:29:39;;;;;;;2.30;2.20;;;9.00;99.90;;;;;;4978666;28;20054;-87
2021/03/21 11:32:16;;;;;;;1.95;1.63;;;8.90;99.90;;;;;;4978622;28;20129;-87
2021/03/21 11:34:44;;;;;;;1.60;1.50;;;8.80;99.90;;;;;;4978488;28;20570;-87
2021/03/21 11:37:20;;;;;;;0.93;0.93;;;9.10;99.90;;;;;;4978167;28;20134;-87
2021/03/21 11:39:55;;;;;;;1.02;0.90;;;8.70;99.90;;;;;;4995526;28;20436;-87
2021/03/21 11:42:37;;;;;;;0.93;0.93;;;8.20;99.90;;;;;;4977962;28;20125;-87
2021/03/21 11:45:12;;;;;;;1.35;0.65;;;7.80;99.90;;;;;;4995414;28;20059;-86
2021/03/21 11:47:42;;;;;;;2.22;2.00;;;7.10;99.90;;;;;;4978550;28;20086;-87
2021/03/21 11:50:18;;;;;;;16.75;2.97;;;6.60;99.90;;;;;;4970742;28;20046;-88
2021/03/21 11:52:45;;;;;;;3.08;1.27;;;6.40;99.90;;;;;;4978505;28;20134;-88
2021/03/21 11:55:20;;;;;;;3.75;2.08;;;6.40;99.90;;;;;;4978416;28;20090;-88
2021/03/21 11:58:10;;;;;;;2.13;2.00;;;6.50;99.90;;;;;;4978020;28;20085;-88
2021/03/21 12:00:38;;;;;;;2.10;2.00;;;6.60;99.90;;;;;;4978077;28;20134;-88
2021/03/21 12:03:21;;;;;;;2.67;1.80;;;6.80;99.90;;;;;;4978140;28;20089;-88
2021/03/21 12:06:27;;;;;;;1.92;1.23;;;7.10;99.90;;;;;;4995501;28;20085;-88
2021/03/21 12:08:53;;;;;;;4.85;1.70;;;7.30;99.90;;;;;;4977919;28;20101;-88
2021/03/21 12:11:26;;;;;;;2.22;1.20;;;7.50;99.90;;;;;;4995044;28;20149;-88
2021/03/21 12:13:54;;;;;;;6.57;1.73;;;7.80;99.90;;;;;;4978031;28;20507;-88
2021/03/21 12:16:35;;;;;;;2.13;1.60;;;7.70;99.90;;;;;;4978244;28;20073;-89
2021/03/21 12:19:05;;;;;;;14.20;2.15;;;7.50;99.90;;;;;;4977917;28;20060;-87
2021/03/21 12:21:37;;;;;;;11.52;2.20;;;7.60;99.90;;;;;;4977393;28;20047;-85
2021/03/21 12:24:12;;;;;;;2.72;1.23;;;7.70;99.90;;;;;;4977787;28;20054;-89
2021/03/21 12:26:47;;;;;;;2.80;1.30;;;8.00;99.90;;;;;;4978152;28;20049;-89
2021/03/21 12:29:22;;;;;;;3.05;1.40;;;7.90;99.90;;;;;;4977695;28;20133;-89
2021/03/21 12:31:49;;;;;;;6.22;1.92;;;7.60;99.90;;;;;;4977757;28;20125;-89
2021/03/21 12:34:34;;;;;;;11.77;2.28;;;7.20;99.90;;;;;;4977617;28;20078;-89
2021/03/21 12:37:16;;;;;;;7.90;1.73;;;7.20;99.90;;;;;;4977455;28;20086;-89
2021/03/21 12:39:46;;;;;;;11.85;2.50;;;7.10;99.90;;;;;;4977585;28;20609;-89
2021/03/21 12:42:33;;;;;;;12.93;2.25;;;7.30;99.90;;;;;;4977588;28;20495;-90
2021/03/21 12:45:11;;;;;;;14.63;2.65;;;7.50;99.90;;;;;;4977934;28;20054;-89
2021/03/21 12:47:48;;;;;;;7.70;2.00;;;7.70;99.90;;;;;;4994651;28;20137;-89
2021/03/21 12:50:33;;;;;;;12.98;2.83;;;8.00;99.90;;;;;;4970764;28;20121;-89
2021/03/21 12:53:02;;;;;;;9.65;2.20;;;8.70;99.90;;;;;;4977489;28;20055;-89
2021/03/21 12:55:28;;;;;;;13.93;2.13;;;9.10;99.90;;;;;;4977326;28;20046;-89
2021/03/21 12:57:55;;;;;;;9.98;2.10;;;9.40;99.90;;;;;;4977172;28;20101;-88
2021/03/21 13:00:33;;;;;;;10.57;2.15;;;9.60;99.90;;;;;;4977020;28;20073;-88
2021/03/21 13:03:03;;;;;;;16.20;3.08;;;9.50;99.90;;;;;;4993325;28;20046;-89
2021/03/21 13:05:40;;;;;;;21.25;3.35;;;9.00;99.90;;;;;;4977517;28;20506;-88
2021/03/21 13:08:08;;;;;;;15.48;3.20;;;8.70;99.90;;;;;;4977132;28;20518;-88
2021/03/21 13:10:37;;;;;;;15.20;3.20;;;8.80;99.90;;;;;;4977241;28;20104;-88
2021/03/21 13:13:05;;;;;;;22.33;3.38;;;9.30;99.90;;;;;;4994076;28;20125;-87
2021/03/21 13:15:31;;;;;;;13.43;2.80;;;9.70;99.90;;;;;;4977070;28;20077;-87
2021/03/21 13:17:58;;;;;;;16.88;2.80;;;9.50;99.90;;;;;;4977217;28;20050;-88
2021/03/21 13:20:25;;;;;;;12.23;2.90;;;9.40;99.90;;;;;;4978370;28;20108;-86
2021/03/21 13:22:52;;;;;;;16.67;3.55;;;9.40;99.90;;;;;;4994700;28;20050;-87
2021/03/21 13:25:28;;;;;;;13.55;2.92;;;9.20;99.90;;;;;;4976818;28;20149;-86
2021/03/21 13:27:59;;;;;;;24.13;4.03;;;8.90;99.90;;;;;;4993942;28;20053;-88
2021/03/21 13:30:30;;;;;;;16.10;3.15;;;8.60;99.90;;;;;;4976950;28;20085;-87
2021/03/21 13:32:57;;;;;;;18.10;3.50;;;8.90;99.90;;;;;;4977448;28;20439;-87
2021/03/21 13:35:27;;;;;;;19.42;3.63;;;8.60;99.90;;;;;;4997540;28;20058;-88
2021/03/21 13:37:54;;;;;;;27.45;4.30;;;8.60;99.90;;;;;;4980262;28;20097;-87
2021/03/21 13:40:34;;;;;;;18.13;4.22;;;8.90;99.90;;;;;;4980565;28;20080;-88
2021/03/21 13:43:02;;;;;;;11.55;2.53;;;9.10;99.90;;;;;;4980459;28;20046;-87
2021/03/21 13:45:31;;;;;;;17.63;3.17;;;9.70;99.90;;;;;;4980641;28;20074;-87
2021/03/21 13:47:58;;;;;;;16.30;2.75;;;10.10;99.90;;;;;;4980459;28;20473;-87